createdAt,value
2022-09-12T00:01:28.157Z,98822.98
2022-09-12T00:03:59.201Z,98824.44
2022-09-12T00:06:30.298Z,98829.66
2022-09-12T00:09:04.973Z,98830.38
2022-09-12T00:11:37.490Z,98828.13
2022-09-12T00:14:06.843Z,98830.16
2022-09-12T00:16:36.270Z,98832.52
2022-09-12T00:19:06.109Z,98838.80
2022-09-12T00:21:37.337Z,98832.47
2022-09-12T00:24:05.883Z,98833.17
2022-09-12T00:26:34.882Z,98834.15
2022-09-12T00:29:03.207Z,98829.73
2022-09-12T00:31:31.821Z,98828.20
2022-09-12T00:34:01.847Z,98827.11
2022-09-12T00:36:30.966Z,98827.77
2022-09-12T00:38:59.432Z,98825.14
2022-09-12T00:41:39.772Z,98825.17
2022-09-12T00:44:10.943Z,98823.08
2022-09-12T00:46:46.745Z,98821.69
2022-09-12T00:49:29.344Z,98821.36
2022-09-12T00:52:07.127Z,98825.61
2022-09-12T00:55:12.232Z,98827.84
2022-09-12T00:58:04.526Z,98827.77
2022-09-12T01:00:32.937Z,98828.05
2022-09-12T01:03:33.970Z,98829.05
2022-09-12T01:06:19.098Z,98833.34
2022-09-12T01:08:48.637Z,98833.64
2022-09-12T01:11:18.385Z,98831.48
2022-09-12T01:13:47.619Z,98832.71
2022-09-12T01:16:16.217Z,98830.21
2022-09-12T01:18:45.472Z,98831.15
2022-09-12T01:21:51.144Z,98829.85
2022-09-12T01:24:37.670Z,98828.96
2022-09-12T01:27:27.515Z,98826.15
2022-09-12T01:30:05.262Z,98824.66
2022-09-12T01:33:01.672Z,98828.73
2022-09-12T01:35:45.974Z,98828.75
2022-09-12T01:38:36.709Z,98828.91
2022-09-12T01:41:10.802Z,98830.88
2022-09-12T01:43:56.592Z,98831.21
2022-09-12T01:46:31.975Z,98830.99
2022-09-12T01:49:23.939Z,98831.66
2022-09-12T01:52:10.787Z,98830.15
2022-09-12T01:54:47.045Z,98828.16
2022-09-12T01:57:25.157Z,98830.56
2022-09-12T02:00:00.452Z,98828.42
2022-09-12T02:02:35.668Z,98829.34
2022-09-12T02:05:35.109Z,98832.53
2022-09-12T02:08:29.933Z,98832.75
2022-09-12T02:11:06.807Z,98833.39
2022-09-12T02:13:43.243Z,98830.65
2022-09-12T02:16:20.970Z,98828.68
2022-09-12T02:19:05.921Z,98829.23
2022-09-12T02:21:36.894Z,98826.67
2022-09-12T02:24:08.059Z,98828.40
2022-09-12T02:26:47.027Z,98824.64
2022-09-12T02:29:16.032Z,98829.98
2022-09-12T02:31:50.151Z,98830.35
2022-09-12T02:34:55.613Z,98831.39
2022-09-12T02:38:00.396Z,98829.51
2022-09-12T02:40:30.368Z,98831.36
2022-09-12T02:42:58.859Z,98832.52
2022-09-12T02:45:27.754Z,98833.63
2022-09-12T02:48:33.113Z,98834.33
2022-09-12T02:51:02.646Z,98835.77
2022-09-12T02:53:31.282Z,98834.42
2022-09-12T02:55:59.612Z,98837.20
2022-09-12T02:58:31.283Z,98838.57
2022-09-12T03:01:08.364Z,98837.15
2022-09-12T03:04:00.576Z,98842.55
2022-09-12T03:06:44.848Z,98838.16
2022-09-12T03:09:21.403Z,98843.48
2022-09-12T03:11:49.661Z,98845.14
2022-09-12T03:14:48.138Z,98847.94
2022-09-12T03:17:51.416Z,98847.82
2022-09-12T03:20:45.865Z,98851.95
2022-09-12T03:23:32.654Z,98852.45
2022-09-12T03:26:12.917Z,98854.08
2022-09-12T03:28:43.107Z,98854.74
2022-09-12T03:31:19.152Z,98860.09
2022-09-12T03:33:47.600Z,98859.02
2022-09-12T03:36:27.914Z,98858.09
2022-09-12T03:38:56.790Z,98860.00
2022-09-12T03:41:24.830Z,98860.56
2022-09-12T03:43:53.280Z,98857.39
2022-09-12T03:46:21.756Z,98862.53
2022-09-12T03:48:50.857Z,98863.18
2022-09-12T03:51:19.111Z,98860.98
2022-09-12T03:53:47.738Z,98864.31
2022-09-12T03:56:18.038Z,98864.27
2022-09-12T03:58:46.327Z,98866.44
2022-09-12T04:01:17.676Z,98870.96
2022-09-12T04:03:49.401Z,98873.49
2022-09-12T04:06:22.712Z,98879.73
2022-09-12T04:08:53.342Z,98881.90
2022-09-12T04:11:23.178Z,98880.40
2022-09-12T04:13:51.490Z,98885.17
2022-09-12T04:16:20.402Z,98884.75
2022-09-12T04:18:49.131Z,98883.34
2022-09-12T04:21:22.455Z,98888.23
2022-09-12T04:23:51.940Z,98892.81
2022-09-12T04:26:21.276Z,98887.52
2022-09-12T04:28:54.856Z,98890.39
2022-09-12T04:31:24.950Z,98895.61
2022-09-12T04:33:58.053Z,98896.00
2022-09-12T04:36:28.635Z,98896.58
2022-09-12T04:38:56.884Z,98897.92
2022-09-12T04:41:34.556Z,98901.83
2022-09-12T04:44:08.607Z,98903.73
2022-09-12T04:46:41.705Z,98905.81
2022-09-12T04:49:10.464Z,98902.11
2022-09-12T04:51:40.899Z,98898.10
2022-09-12T04:54:14.064Z,98901.33
2022-09-12T04:56:44.569Z,98900.11
2022-09-12T04:59:16.253Z,98899.13
2022-09-12T05:01:44.589Z,98902.23
2022-09-12T05:04:13.893Z,98903.55
2022-09-12T05:06:43.313Z,98906.95
2022-09-12T05:09:14.134Z,98907.48
2022-09-12T05:12:03.724Z,98906.13
2022-09-12T05:14:33.623Z,98909.46
2022-09-12T05:17:03.524Z,98910.80
2022-09-12T05:19:33.048Z,98913.00
2022-09-12T05:22:01.531Z,98915.56
2022-09-12T05:24:29.799Z,98914.98
2022-09-12T05:26:57.973Z,98921.01
2022-09-12T05:29:26.094Z,98922.88
2022-09-12T05:31:54.671Z,98923.77
2022-09-12T05:34:23.400Z,98926.40
2022-09-12T05:36:51.682Z,98926.02
2022-09-12T05:39:19.950Z,98925.90
2022-09-12T05:41:48.094Z,98924.17
2022-09-12T05:44:16.332Z,98925.47
2022-09-12T05:46:46.731Z,98919.81
2022-09-12T05:49:14.978Z,98920.80
2022-09-12T05:51:45.519Z,98922.54
2022-09-12T05:54:15.738Z,98922.83
2022-09-12T05:56:44.928Z,98925.70
2022-09-12T05:59:15.813Z,98923.50
2022-09-12T06:01:44.611Z,98928.11
2022-09-12T06:04:13.231Z,98928.63
2022-09-12T06:06:47.276Z,98930.03
2022-09-12T06:09:17.506Z,98931.88
2022-09-12T06:11:46.403Z,98930.32
2022-09-12T06:14:17.810Z,98930.98
2022-09-12T06:16:47.512Z,98936.16
2022-09-12T06:19:23.999Z,98935.68
2022-09-12T06:21:53.476Z,98939.26
2022-09-12T06:24:21.721Z,98934.89
2022-09-12T06:26:52.924Z,98937.39
2022-09-12T06:29:22.037Z,98935.84
2022-09-12T06:31:50.228Z,98932.47
2022-09-12T06:34:19.613Z,98936.39
2022-09-12T06:36:49.241Z,98934.23
2022-09-12T06:39:19.265Z,98933.80
2022-09-12T06:41:48.989Z,98933.38
2022-09-12T06:44:22.513Z,98936.05
2022-09-12T06:46:51.048Z,98932.21
2022-09-12T06:49:19.271Z,98933.30
2022-09-12T06:51:47.334Z,98937.30
2022-09-12T06:54:17.322Z,98933.98
2022-09-12T06:56:45.841Z,98934.66
2022-09-12T06:59:14.015Z,98937.64
2022-09-12T07:01:42.439Z,98941.95
2022-09-12T07:04:11.556Z,98939.67
2022-09-12T07:06:42.378Z,98942.02
2022-09-12T07:09:13.749Z,98945.30
2022-09-12T07:11:42.874Z,98948.61
2022-09-12T07:14:14.077Z,98947.33
2022-09-12T07:16:42.887Z,98947.94
2022-09-12T07:19:11.229Z,98949.41
2022-09-12T07:21:40.883Z,98947.81
2022-09-12T07:24:11.026Z,98948.92
2022-09-12T07:26:42.308Z,98951.05
2022-09-12T07:29:35.935Z,98952.81
2022-09-12T07:32:05.779Z,98956.37
2022-09-12T07:34:35.059Z,98957.83
2022-09-12T07:37:03.255Z,98959.88
2022-09-12T07:39:32.482Z,98961.88
2022-09-12T07:42:00.554Z,98961.38
2022-09-12T07:44:30.563Z,98966.69
2022-09-12T07:46:58.620Z,98967.79
2022-09-12T07:49:27.078Z,98971.44
2022-09-12T07:51:55.184Z,98971.13
2022-09-12T07:54:23.574Z,98974.95
2022-09-12T07:56:51.915Z,98974.55
2022-09-12T07:59:35.628Z,98968.39
2022-09-12T08:02:17.119Z,98972.29
2022-09-12T08:04:48.238Z,98977.08
2022-09-12T08:07:19.376Z,98980.27
2022-09-12T08:09:47.507Z,98973.73
2022-09-12T08:12:16.615Z,98978.80
2022-09-12T08:14:45.091Z,98973.00
2022-09-12T08:17:14.452Z,98978.30
2022-09-12T08:19:42.753Z,98981.83
2022-09-12T08:22:12.248Z,98982.65
2022-09-12T08:24:40.540Z,98985.75
2022-09-12T08:27:08.897Z,98985.73
2022-09-12T08:29:37.126Z,98981.06
2022-09-12T08:32:05.486Z,98981.70
2022-09-12T08:34:33.733Z,98986.73
2022-09-12T08:37:02.213Z,98983.06
2022-09-12T08:39:30.298Z,98980.55
2022-09-12T08:42:03.883Z,98980.79
2022-09-12T08:44:43.181Z,98986.92
2022-09-12T08:47:22.661Z,98985.06
2022-09-12T08:50:03.062Z,98981.13
2022-09-12T08:52:44.220Z,98977.08
2022-09-12T08:55:25.763Z,98981.70
2022-09-12T08:57:54.806Z,98983.89
2022-09-12T09:00:23.162Z,98977.80
2022-09-12T09:03:03.414Z,98986.35
2022-09-12T09:05:52.082Z,98983.83
2022-09-12T09:08:29.423Z,98983.04
2022-09-12T09:11:25.123Z,98992.09
2022-09-12T09:14:27.146Z,98982.17
2022-09-12T09:16:57.921Z,98978.69
2022-09-12T09:19:32.766Z,98976.75
2022-09-12T09:22:07.433Z,98976.58
2022-09-12T09:24:53.480Z,98971.48
2022-09-12T09:27:43.450Z,98976.45
2022-09-12T09:30:21.854Z,98979.38
2022-09-12T09:32:57.724Z,98980.52
2022-09-12T09:35:49.105Z,98985.04
2022-09-12T09:38:26.974Z,98985.84
2022-09-12T09:41:39.523Z,98988.52
2022-09-12T09:46:41.699Z,98983.20
2022-09-12T09:49:14.658Z,98979.05
2022-09-12T09:51:43.089Z,98981.07
2022-09-12T09:54:34.223Z,98983.15
2022-09-12T09:57:02.610Z,98984.34
2022-09-12T09:59:34.471Z,98981.44
2022-09-12T10:02:14.446Z,98984.25
2022-09-12T10:04:55.266Z,98979.70
2022-09-12T10:07:24.464Z,98979.66
2022-09-12T10:10:13.142Z,98980.59
2022-09-12T10:12:41.797Z,98975.61
2022-09-12T10:15:30.589Z,98978.20
2022-09-12T10:18:00.225Z,98985.16
2022-09-12T10:20:44.750Z,98988.14
2022-09-12T10:23:35.327Z,98991.59
2022-09-12T10:26:10.627Z,98989.40
2022-09-12T10:28:41.713Z,98991.27
2022-09-12T10:31:15.629Z,98985.94
2022-09-12T10:33:53.957Z,98987.02
2022-09-12T10:36:23.790Z,98985.70
2022-09-12T10:38:56.745Z,98988.56
2022-09-12T10:41:25.399Z,98999.15
2022-09-12T10:44:05.807Z,98996.85
2022-09-12T10:46:33.844Z,98993.48
2022-09-12T10:49:26.790Z,98997.97
2022-09-12T10:51:56.900Z,98996.54
2022-09-12T10:54:27.685Z,98991.44
2022-09-12T10:57:07.028Z,98998.27
2022-09-12T11:00:02.629Z,98995.58
2022-09-12T11:02:49.100Z,98999.50
2022-09-12T11:05:36.934Z,99002.55
2022-09-12T11:08:28.287Z,99003.65
2022-09-12T11:11:35.495Z,98999.87
2022-09-12T11:14:25.321Z,99002.76
2022-09-12T11:17:02.720Z,99008.63
2022-09-12T11:19:59.117Z,99009.19
2022-09-12T11:22:45.732Z,99008.27
2022-09-12T11:25:29.002Z,99010.14
2022-09-12T11:28:31.206Z,99007.96
2022-09-12T11:31:02.253Z,99007.88
2022-09-12T11:33:44.503Z,99014.76
2022-09-12T11:36:34.393Z,99011.21
2022-09-12T11:39:03.720Z,99011.88
2022-09-12T11:41:36.235Z,99009.15
2022-09-12T11:44:17.524Z,99007.36
2022-09-12T11:46:51.109Z,99008.98
2022-09-12T11:49:40.061Z,99009.77
2022-09-12T11:52:11.050Z,99011.59
2022-09-12T11:54:49.028Z,99012.27
2022-09-12T11:57:25.217Z,99008.70
2022-09-12T12:00:02.864Z,99008.83
2022-09-12T12:02:56.018Z,99008.46
2022-09-12T12:05:41.365Z,99010.63
2022-09-12T12:08:11.018Z,99009.71
2022-09-12T12:10:42.627Z,99005.25
2022-09-12T12:13:23.803Z,99007.88
2022-09-12T12:15:57.288Z,99011.66
2022-09-12T12:18:30.396Z,99008.33
2022-09-12T12:21:21.864Z,99009.77
2022-09-12T12:24:26.198Z,99006.13
2022-09-12T12:27:43.236Z,99008.10
2022-09-12T12:30:29.459Z,99006.73
2022-09-12T12:33:16.659Z,99010.73
2022-09-12T12:35:59.952Z,99012.45
2022-09-12T12:38:32.243Z,99009.52
2022-09-12T12:41:18.523Z,99006.06
2022-09-12T12:43:56.993Z,99003.55
2022-09-12T12:46:29.522Z,99000.82
2022-09-12T12:49:35.935Z,98999.44
2022-09-12T12:52:04.225Z,99003.48
2022-09-12T12:54:41.310Z,99006.04
2022-09-12T12:57:30.357Z,99004.59
2022-09-12T13:00:06.932Z,99001.40
2022-09-12T13:02:52.561Z,98998.27
2022-09-12T13:05:24.762Z,98997.75
2022-09-12T13:08:06.861Z,98997.23
2022-09-12T13:10:35.585Z,98995.10
2022-09-12T13:13:08.753Z,98996.30
2022-09-12T13:15:37.355Z,98999.56
2022-09-12T13:18:16.873Z,98999.33
2022-09-12T13:20:54.515Z,99003.73
2022-09-12T13:23:23.741Z,99000.45
2022-09-12T13:25:57.700Z,99002.73
2022-09-12T13:28:32.114Z,99005.65
2022-09-12T13:31:25.902Z,99000.95
2022-09-12T13:33:58.250Z,99002.94
2022-09-12T13:36:43.610Z,98995.20
2022-09-12T13:39:46.611Z,98995.29
2022-09-12T13:42:38.867Z,98996.63
2022-09-12T13:45:27.778Z,98996.20
2022-09-12T13:48:04.718Z,98990.88
2022-09-12T13:50:57.711Z,98988.10
2022-09-12T13:53:30.843Z,98983.33
2022-09-12T13:56:00.562Z,98984.23
2022-09-12T13:58:35.168Z,98982.39
2022-09-12T14:01:15.178Z,98981.84
2022-09-12T14:04:09.002Z,98980.95
2022-09-12T14:06:46.664Z,98985.42
2022-09-12T14:09:31.339Z,98987.91
2022-09-12T14:12:00.478Z,98984.31
2022-09-12T14:14:33.131Z,98990.70
2022-09-12T14:17:02.125Z,98988.17
2022-09-12T14:19:30.512Z,98990.61
2022-09-12T14:21:59.189Z,98994.00
2022-09-12T14:24:27.558Z,98996.06
2022-09-12T14:26:56.975Z,98995.36
2022-09-12T14:29:26.448Z,98997.09
2022-09-12T14:32:03.377Z,98995.40
2022-09-12T14:34:31.748Z,98999.68
2022-09-12T14:36:59.970Z,99002.27
2022-09-12T14:39:54.651Z,99000.72
2022-09-12T14:42:28.879Z,98999.91
2022-09-12T14:45:00.869Z,98998.75
2022-09-12T14:47:39.077Z,98995.11
2022-09-12T14:50:18.871Z,98996.52
2022-09-12T14:52:47.046Z,98994.74
2022-09-12T14:55:31.735Z,98992.19
2022-09-12T14:58:21.022Z,98986.29
2022-09-12T15:00:58.221Z,98988.74
2022-09-12T15:03:49.648Z,98984.90
2022-09-12T15:06:28.521Z,98983.98
2022-09-12T15:09:00.754Z,98984.63
2022-09-12T15:11:29.107Z,98982.94
2022-09-12T15:13:57.187Z,98982.47
2022-09-12T15:16:25.589Z,98977.70
2022-09-12T15:18:54.153Z,98977.59
2022-09-12T15:21:22.504Z,98976.61
2022-09-12T15:23:51.978Z,98975.19
2022-09-12T15:26:23.686Z,98973.17
2022-09-12T15:28:52.119Z,98976.09
2022-09-12T15:31:27.384Z,98973.48
2022-09-12T15:33:57.207Z,98976.23
2022-09-12T15:36:26.267Z,98974.48
2022-09-12T15:38:55.378Z,98971.11
2022-09-12T15:41:29.523Z,98972.57
2022-09-12T15:43:57.849Z,98973.90
2022-09-12T15:46:26.111Z,98975.94
2022-09-12T15:48:54.341Z,98973.55
2022-09-12T15:51:22.581Z,98974.39
2022-09-12T15:53:51.674Z,98978.21
2022-09-12T15:56:21.583Z,98976.17
2022-09-12T15:59:05.434Z,98980.92
2022-09-12T16:01:33.566Z,98984.52
2022-09-12T16:04:03.421Z,98989.99
2022-09-12T16:06:37.184Z,98986.38
2022-09-12T16:09:05.683Z,98989.39
2022-09-12T16:11:33.860Z,98989.84
2022-09-12T16:14:03.808Z,98990.19
2022-09-12T16:16:32.333Z,98990.58
2022-09-12T16:19:01.697Z,98990.58
2022-09-12T16:21:29.790Z,98989.60
2022-09-12T16:23:58.419Z,98990.73
2022-09-12T16:26:26.596Z,98991.04
2022-09-12T16:28:56.617Z,98990.09
2022-09-12T16:31:25.564Z,98990.58
2022-09-12T16:33:53.917Z,98990.42
2022-09-12T16:36:22.959Z,98986.73
2022-09-12T16:38:53.358Z,98990.00
2022-09-12T16:41:26.549Z,98993.36
2022-09-12T16:43:56.103Z,98993.79
2022-09-12T16:46:30.268Z,98991.69
2022-09-12T16:48:59.055Z,98989.88
2022-09-12T16:51:31.507Z,98988.35
2022-09-12T16:53:59.791Z,98989.77
2022-09-12T16:56:28.145Z,98992.39
2022-09-12T16:58:56.304Z,98994.45
2022-09-12T17:01:26.189Z,98992.42
2022-09-12T17:03:58.633Z,98991.33
2022-09-12T17:06:28.450Z,98988.45
2022-09-12T17:09:04.587Z,98987.83
2022-09-12T17:11:38.933Z,98981.15
2022-09-12T17:14:08.734Z,98984.44
2022-09-12T17:16:43.471Z,98981.30
2022-09-12T17:19:22.624Z,98984.46
2022-09-12T17:21:51.035Z,98985.45
2022-09-12T17:24:20.292Z,98984.67
2022-09-12T17:26:49.200Z,98990.72
2022-09-12T17:29:17.956Z,98990.02
2022-09-12T17:31:46.606Z,98992.27
2022-09-12T17:34:16.292Z,98996.36
2022-09-12T17:36:45.790Z,98997.86
2022-09-12T17:39:14.807Z,98995.61
2022-09-12T17:41:43.480Z,98998.83
2022-09-12T17:44:14.315Z,99003.41
2022-09-12T17:46:42.643Z,99001.64
2022-09-12T17:49:15.944Z,99003.16
2022-09-12T17:51:45.111Z,99004.05
2022-09-12T17:54:18.913Z,99001.92
2022-09-12T17:56:49.833Z,99002.31
2022-09-12T17:59:21.742Z,99007.46
2022-09-12T18:02:08.845Z,99010.10
2022-09-12T18:04:37.628Z,99008.00
2022-09-12T18:07:06.901Z,99009.16
2022-09-12T18:09:36.452Z,99010.23
2022-09-12T18:12:05.735Z,99007.63
2022-09-12T18:14:34.449Z,99009.70
2022-09-12T18:17:02.541Z,99008.94
2022-09-12T18:19:31.053Z,99008.45
2022-09-12T18:21:59.192Z,99008.98
2022-09-12T18:24:27.916Z,99006.85
2022-09-12T18:26:58.885Z,99009.55
2022-09-12T18:29:28.056Z,99007.48
2022-09-12T18:31:59.516Z,99008.64
2022-09-12T18:34:28.145Z,99006.73
2022-09-12T18:36:56.378Z,99006.73
2022-09-12T18:39:27.668Z,99009.21
2022-09-12T18:41:56.380Z,99005.84
2022-09-12T18:44:24.516Z,99003.99
2022-09-12T18:46:52.967Z,99006.91
2022-09-12T18:49:21.224Z,99007.60
2022-09-12T18:51:49.270Z,99006.05
2022-09-12T18:54:18.153Z,99006.06
2022-09-12T18:56:46.349Z,99003.68
2022-09-12T18:59:15.141Z,99001.43
2022-09-12T19:01:44.598Z,99001.64
2022-09-12T19:04:14.071Z,98999.25
2022-09-12T19:06:48.287Z,99000.70
2022-09-12T19:09:18.585Z,98997.13
2022-09-12T19:11:51.020Z,98998.44
2022-09-12T19:14:22.906Z,99001.91
2022-09-12T19:16:52.100Z,98997.94
2022-09-12T19:19:21.387Z,98998.77
2022-09-12T19:21:49.776Z,99000.16
2022-09-12T19:24:17.923Z,98999.00
2022-09-12T19:26:46.216Z,99001.91
2022-09-12T19:29:16.656Z,99003.70
2022-09-12T19:31:45.864Z,99006.17
2022-09-12T19:34:15.438Z,99003.17
2022-09-12T19:36:45.767Z,99002.09
2022-09-12T19:39:19.857Z,98998.56
2022-09-12T19:41:48.729Z,98998.08
2022-09-12T19:44:19.426Z,98996.81
2022-09-12T19:46:47.999Z,98988.80
2022-09-12T19:49:16.495Z,98991.02
2022-09-12T19:51:46.352Z,98986.59
2022-09-12T19:54:19.625Z,98994.98
2022-09-12T19:56:47.732Z,98992.95
2022-09-12T19:59:15.848Z,98993.89
2022-09-12T20:01:44.063Z,98995.92
2022-09-12T20:04:14.161Z,98992.00
2022-09-12T20:06:42.377Z,98989.86
2022-09-12T20:09:10.614Z,98988.91
2022-09-12T20:11:38.782Z,98985.45
2022-09-12T20:14:07.667Z,98982.08
2022-09-12T20:16:36.126Z,98981.83
2022-09-12T20:19:07.108Z,98982.64
2022-09-12T20:21:36.151Z,98980.48
2022-09-12T20:24:13.644Z,98979.52
2022-09-12T20:26:42.283Z,98977.94
2022-09-12T20:29:11.200Z,98977.25
2022-09-12T20:31:42.206Z,98977.69
2022-09-12T20:34:15.038Z,98974.92
2022-09-12T20:36:43.258Z,98978.65
2022-09-12T20:39:14.168Z,98977.24
2022-09-12T20:41:42.426Z,98978.79
2022-09-12T20:44:10.843Z,98978.03
2022-09-12T20:46:39.953Z,98973.80
2022-09-12T20:49:08.961Z,98969.47
2022-09-12T20:51:37.626Z,98969.50
2022-09-12T20:54:07.036Z,98968.08
2022-09-12T20:56:36.836Z,98970.02
2022-09-12T20:59:05.886Z,98967.33
2022-09-12T21:01:34.673Z,98965.21
2022-09-12T21:04:03.120Z,98960.90
2022-09-12T21:06:31.868Z,98960.64
2022-09-12T21:09:00.822Z,98958.31
2022-09-12T21:11:29.871Z,98956.61
2022-09-12T21:13:58.388Z,98958.80
2022-09-12T21:16:27.374Z,98961.18
2022-09-12T21:18:57.977Z,98962.73
2022-09-12T21:21:26.607Z,98968.15
2022-09-12T21:23:58.683Z,98965.86
2022-09-12T21:26:27.302Z,98964.06
2022-09-12T21:28:58.822Z,98963.63
2022-09-12T21:31:27.167Z,98964.42
2022-09-12T21:33:55.345Z,98963.37
2022-09-12T21:36:24.855Z,98963.61
2022-09-12T21:38:53.114Z,98961.73
2022-09-12T21:41:21.207Z,98962.72
2022-09-12T21:43:52.374Z,98960.97
2022-09-12T21:46:20.460Z,98956.00
2022-09-12T21:48:48.555Z,98953.09
2022-09-12T21:51:16.789Z,98952.58
2022-09-12T21:53:44.940Z,98950.52
2022-09-12T21:56:13.256Z,98945.23
2022-09-12T21:58:41.355Z,98946.45
2022-09-12T22:01:12.021Z,98947.50
2022-09-12T22:03:43.257Z,98946.25
2022-09-12T22:06:11.841Z,98943.27
2022-09-12T22:08:40.061Z,98943.48
2022-09-12T22:11:12.122Z,98945.16
2022-09-12T22:13:46.152Z,98950.22
2022-09-12T22:16:15.060Z,98947.84
2022-09-12T22:18:43.458Z,98944.25
2022-09-12T22:21:15.047Z,98946.54
2022-09-12T22:24:01.707Z,98943.11
2022-09-12T22:26:36.497Z,98944.52
2022-09-12T22:29:04.558Z,98938.04
2022-09-12T22:31:33.786Z,98940.17
2022-09-12T22:34:02.039Z,98940.50
2022-09-12T22:36:31.905Z,98938.48
2022-09-12T22:39:01.105Z,98940.09
2022-09-12T22:41:29.301Z,98943.09
2022-09-12T22:43:58.496Z,98940.30
2022-09-12T22:46:31.452Z,98940.21
2022-09-12T22:49:00.606Z,98940.02
2022-09-12T22:51:28.868Z,98938.41
2022-09-12T22:53:57.456Z,98938.71
2022-09-12T22:56:26.238Z,98935.45
2022-09-12T22:58:55.718Z,98930.62
2022-09-12T23:01:24.155Z,98929.19
2022-09-12T23:03:52.285Z,98930.17
2022-09-12T23:06:21.342Z,98927.02
2022-09-12T23:08:52.463Z,98922.90
2022-09-12T23:11:21.543Z,98920.57
2022-09-12T23:13:51.271Z,98918.96
2022-09-12T23:16:22.652Z,98921.27
2022-09-12T23:18:51.538Z,98919.20
2022-09-12T23:21:21.611Z,98915.48
2022-09-12T23:23:50.263Z,98915.06
2022-09-12T23:26:22.152Z,98914.78
2022-09-12T23:28:55.887Z,98916.55
2022-09-12T23:31:27.516Z,98915.95
2022-09-12T23:34:01.023Z,98919.39
2022-09-12T23:36:30.357Z,98918.13
2022-09-12T23:38:58.438Z,98914.71
2022-09-12T23:41:26.907Z,98915.17
2022-09-12T23:43:55.213Z,98916.89
2022-09-12T23:46:23.493Z,98913.60
2022-09-12T23:48:53.532Z,98916.85
2022-09-12T23:51:23.473Z,98911.67
2022-09-12T23:53:51.562Z,98907.77
2022-09-12T23:56:19.777Z,98908.16
2022-09-12T23:58:48.510Z,98906.48
